Time;durP1;ratioP1;P1;durP2;ratioP2;P2;SDS_P1;SDS_P2;PMS_P1;PMS_P2;Temp;Humidity;BMP_temperature;BMP_pressure;BME280_temperature;BME280_humidity;BME280_pressure;Samples;Min_cycle;Max_cycle;Signal;HPM_P1;HPM_P2
2021/01/02 00:00:51;;;;;;;20.85;12.18;;;;;;;2.37;87.71;100798.19;5046696;28;20383;-76
2021/01/02 00:03:46;;;;;;;25.00;13.43;;;;;;;2.39;87.73;100796.09;5050500;28;20049;-76
2021/01/02 00:06:20;;;;;;;26.65;13.65;;;;;;;2.38;88.01;100799.84;5050929;28;20028;-76
2021/01/02 00:08:48;;;;;;;30.92;14.52;;;;;;;2.37;87.37;100798.19;5050669;28;20033;-76
2021/01/02 00:11:50;;;;;;;27.38;15.02;;;;;;;2.37;87.39;100795.50;5032017;28;20021;-76
2021/01/02 00:14:44;;;;;;;26.10;14.35;;;;;;;2.38;87.85;100799.84;5049337;28;20117;-76
2021/01/02 00:17:31;;;;;;;25.25;13.60;;;;;;;2.37;87.47;100800.88;5049781;28;20421;-76
2021/01/02 00:20:18;;;;;;;26.65;13.82;;;;;;;2.38;87.38;100799.84;5050609;28;20056;-76
2021/01/02 00:22:55;;;;;;;27.05;14.52;;;;;;;2.38;87.45;100802.53;5049901;28;20037;-76
2021/01/02 00:25:31;;;;;;;25.38;14.00;;;;;;;2.39;87.82;100806.88;5049262;28;20079;-75
2021/01/02 00:28:10;;;;;;;24.50;14.07;;;;;;;2.39;87.45;100796.09;5049614;28;20032;-76
2021/01/02 00:31:00;;;;;;;27.65;14.13;;;;;;;2.39;87.56;100801.47;5044961;28;20079;-76
2021/01/02 00:33:40;;;;;;;24.73;13.15;;;;;;;2.38;87.43;100799.84;5054743;28;20052;-76
2021/01/02 00:36:22;;;;;;;25.15;14.32;;;;;;;2.38;87.40;100794.47;5055255;28;20037;-76
2021/01/02 00:38:47;;;;;;;23.00;13.60;;;;;;;2.40;87.63;100808.50;5054118;28;20090;-76
2021/01/02 00:41:12;;;;;;;21.83;13.85;;;;;;;2.40;87.78;100808.50;5065468;28;20037;-76
2021/01/02 00:43:38;;;;;;;24.52;13.55;;;;;;;2.41;87.41;100805.59;5054452;28;20029;-75
2021/01/02 00:46:03;;;;;;;22.02;13.10;;;;;;;2.41;87.98;100810.16;5053711;28;20589;-76
2021/01/02 00:48:28;;;;;;;23.15;13.30;;;;;;;2.40;87.86;100805.81;5054897;28;20035;-76
2021/01/02 00:50:54;;;;;;;26.25;13.15;;;;;;;2.39;87.42;100806.88;5036558;28;20379;-76
2021/01/02 00:53:32;;;;;;;23.35;13.35;;;;;;;2.40;87.54;100805.81;5054297;28;20032;-76
2021/01/02 00:56:07;;;;;;;23.95;13.75;;;;;;;2.39;87.68;100812.25;5036466;28;20490;-76
2021/01/02 00:58:48;;;;;;;21.83;13.25;;;;;;;2.41;87.24;100812.84;5053737;28;20047;-76
2021/01/02 01:01:24;;;;;;;23.43;13.00;;;;;;;2.43;87.74;100816.97;5052211;28;20458;-76
2021/01/02 01:04:16;;;;;;;22.92;12.75;;;;;;;2.45;87.57;100819.44;5037474;28;20036;-76
2021/01/02 01:06:42;;;;;;;25.63;12.93;;;;;;;2.45;87.75;100822.13;5054216;28;20402;-76
2021/01/02 01:09:10;;;;;;;25.08;14.20;;;;;;;2.47;87.80;100830.81;5036262;28;20028;-76
2021/01/02 01:11:36;;;;;;;23.55;13.20;;;;;;;2.48;87.86;100818.16;5036771;28;20063;-76
2021/01/02 01:14:02;;;;;;;25.08;14.20;;;;;;;2.49;87.41;100828.72;5036735;28;20057;-76
2021/01/02 01:16:27;;;;;;;25.42;14.18;;;;;;;2.50;87.94;100826.84;5036242;28;20036;-76
2021/01/02 01:19:01;;;;;;;24.73;15.65;;;;;;;2.51;87.61;100836.56;5034593;28;20021;-76
2021/01/02 01:21:29;;;;;;;26.30;14.10;;;;;;;2.52;87.97;100832.84;5051366;28;20123;-76
2021/01/02 01:24:13;;;;;;;25.85;13.55;;;;;;;2.52;87.58;100830.16;5055040;28;20385;-76
2021/01/02 01:26:42;;;;;;;22.60;12.40;;;;;;;2.53;87.65;100829.91;5053300;28;20031;-76
2021/01/02 01:29:07;;;;;;;24.10;13.23;;;;;;;2.55;88.00;100835.09;5046308;28;20021;-76
2021/01/02 01:31:43;;;;;;;21.88;13.10;;;;;;;2.55;87.47;100838.59;5034357;28;20013;-75
2021/01/02 01:34:10;;;;;;;23.33;13.02;;;;;;;2.57;87.48;100835.72;5069990;28;20056;-75
2021/01/02 01:36:35;;;;;;;20.65;12.15;;;;;;;2.58;88.04;100837.34;5052873;28;20048;-76
2021/01/02 01:39:03;;;;;;;21.55;12.15;;;;;;;2.58;87.78;100842.72;5059479;28;20026;-76
2021/01/02 01:41:34;;;;;;;25.50;13.52;;;;;;;2.60;87.19;100843.34;5048728;28;20040;-76
2021/01/02 01:44:38;;;;;;;21.52;12.40;;;;;;;2.61;87.49;100837.72;5048129;28;20021;-76
2021/01/02 01:47:13;;;;;;;21.55;13.02;;;;;;;2.63;87.75;100846.41;5045850;28;20550;-76
2021/01/02 01:49:38;;;;;;;23.63;12.93;;;;;;;2.65;87.25;100847.03;5082850;28;20115;-76
2021/01/02 01:52:05;;;;;;;22.05;11.82;;;;;;;2.65;87.19;100849.72;5046061;28;20103;-76
2021/01/02 01:55:05;;;;;;;23.05;13.35;;;;;;;2.67;87.57;100853.00;5053276;28;20474;-76
2021/01/02 01:57:30;;;;;;;21.58;12.23;;;;;;;2.69;87.38;100850.09;5052767;28;20085;-75
2021/01/02 01:59:59;;;;;;;21.88;13.55;;;;;;;2.69;87.61;100851.97;5083615;28;20025;-76
2021/01/02 02:02:39;;;;;;;24.30;13.73;;;;;;;2.70;87.58;100856.28;5046031;28;20057;-76
2021/01/02 02:05:09;;;;;;;23.48;13.70;;;;;;;2.70;87.95;100857.13;5053444;28;20502;-76
2021/01/02 02:07:47;;;;;;;24.42;13.77;;;;;;;2.71;87.56;100860.66;5049140;28;20078;-76
2021/01/02 02:10:31;;;;;;;21.60;13.48;;;;;;;2.73;87.30;100863.91;5048146;28;20557;-76
2021/01/02 02:12:58;;;;;;;21.95;13.10;;;;;;;2.73;87.82;100862.06;5051057;28;20482;-76
2021/01/02 02:15:28;;;;;;;20.30;12.80;;;;;;;2.71;87.93;100864.16;5054521;28;20021;-76
2021/01/02 02:18:14;;;;;;;22.88;14.07;;;;;;;2.72;87.50;100862.28;5051060;28;20458;-76
2021/01/02 02:20:39;;;;;;;24.60;13.95;;;;;;;2.72;87.64;100862.28;5036794;28;20112;-76
2021/01/02 02:23:06;;;;;;;24.52;13.25;;;;;;;2.72;88.07;100859.59;5034931;28;20044;-76
2021/01/02 02:25:49;;;;;;;26.55;14.07;;;;;;;2.71;87.60;100860.66;5052727;28;20024;-76
2021/01/02 02:28:46;;;;;;;20.77;13.23;;;;;;;2.74;87.53;100861.03;5051872;28;20036;-76
2021/01/02 02:31:11;;;;;;;25.85;13.38;;;;;;;2.75;87.48;100859.97;5050943;28;20063;-75
2021/01/02 02:33:37;;;;;;;25.02;14.82;;;;;;;2.77;87.77;100865.97;5068911;28;20033;-76
2021/01/02 02:36:03;;;;;;;26.23;13.65;;;;;;;2.78;87.45;100870.31;5053220;28;20573;-75
2021/01/02 02:38:36;;;;;;;24.90;14.15;;;;;;;2.80;87.35;100864.69;5050706;28;20120;-76
2021/01/02 02:41:06;;;;;;;27.08;14.18;;;;;;;2.80;87.77;100872.78;5078438;28;20048;-76
2021/01/02 02:43:31;;;;;;;23.42;13.32;;;;;;;2.81;88.15;100874.41;5033915;28;20027;-76
2021/01/02 02:45:57;;;;;;;25.50;14.65;;;;;;;2.80;87.46;100878.97;5064753;28;20025;-76
2021/01/02 02:48:22;;;;;;;26.52;13.48;;;;;;;2.79;87.57;100879.22;5050494;28;20462;-76
2021/01/02 02:50:48;;;;;;;25.38;13.55;;;;;;;2.77;87.94;100878.59;5035149;28;20086;-75
2021/01/02 02:53:13;;;;;;;25.35;14.00;;;;;;;2.74;88.03;100879.88;5046741;28;20033;-76
2021/01/02 02:55:39;;;;;;;25.33;12.95;;;;;;;2.76;88.00;100882.34;5035860;28;20075;-76
2021/01/02 02:58:05;;;;;;;25.85;13.65;;;;;;;2.76;87.96;100887.75;5050978;28;20415;-76
2021/01/02 03:00:30;;;;;;;23.48;13.55;;;;;;;2.77;88.17;100889.38;5050589;28;20123;-76
2021/01/02 03:02:56;;;;;;;25.92;13.38;;;;;;;2.77;87.71;100892.88;5052073;28;20024;-76
2021/01/02 03:05:21;;;;;;;25.15;14.10;;;;;;;2.79;87.38;100892.69;5052819;28;20048;-76
2021/01/02 03:07:47;;;;;;;21.45;12.75;;;;;;;2.80;87.62;100888.94;5051512;28;20020;-75
2021/01/02 03:10:14;;;;;;;23.08;13.27;;;;;;;2.78;87.76;100896.41;5051795;28;20114;-76
2021/01/02 03:12:44;;;;;;;25.60;13.60;;;;;;;2.76;87.90;100890.44;5046136;28;20029;-77
2021/01/02 03:15:10;;;;;;;23.85;13.05;;;;;;;2.74;87.61;100889.81;5051730;28;20033;-76
2021/01/02 03:17:36;;;;;;;17.52;10.65;;;;;;;2.73;88.03;100898.91;5029411;28;20402;-76
2021/01/02 03:20:02;;;;;;;23.40;13.40;;;;;;;2.74;87.93;100889.81;5049326;28;20032;-76
2021/01/02 03:22:27;;;;;;;25.90;13.50;;;;;;;2.77;88.27;100900.16;5045939;28;20029;-76
2021/01/02 03:24:52;;;;;;;24.92;14.18;;;;;;;2.79;88.20;100904.28;5051356;28;20044;-76
2021/01/02 03:27:20;;;;;;;23.90;13.57;;;;;;;2.80;87.78;100905.09;5051959;28;20031;-75
2021/01/02 03:29:45;;;;;;;26.77;14.75;;;;;;;2.81;87.75;100904.03;5051606;28;20025;-76
2021/01/02 03:32:11;;;;;;;26.67;14.05;;;;;;;2.80;87.97;100907.78;5048394;28;20025;-76
2021/01/02 03:34:37;;;;;;;24.73;14.25;;;;;;;2.78;87.88;100909.84;5050428;28;20490;-76
2021/01/02 03:37:02;;;;;;;26.48;14.27;;;;;;;2.73;88.08;100907.00;5033456;28;20029;-76
2021/01/02 03:39:27;;;;;;;27.10;15.77;;;;;;;2.69;87.81;100908.50;5050878;28;20033;-76
2021/01/02 03:41:54;;;;;;;37.33;19.85;;;;;;;2.63;88.01;100908.31;5047579;28;20486;-76
2021/01/02 03:44:19;;;;;;;31.30;18.52;;;;;;;2.60;88.25;100916.84;5047538;28;20025;-75
2021/01/02 03:46:44;;;;;;;36.92;20.20;;;;;;;2.57;88.00;100911.88;5051552;28;20032;-75
2021/01/02 03:49:10;;;;;;;37.28;19.45;;;;;;;2.55;88.22;100913.97;5049800;28;20025;-76
2021/01/02 03:51:35;;;;;;;37.90;19.80;;;;;;;2.52;88.22;100911.72;5049238;28;20098;-76
2021/01/02 03:54:00;;;;;;;36.83;18.80;;;;;;;2.51;88.35;100918.16;5052390;28;20041;-76
2021/01/02 03:56:26;;;;;;;30.85;15.88;;;;;;;2.51;87.96;100910.06;5052293;28;20013;-75
2021/01/02 03:58:51;;;;;;;33.25;17.33;;;;;;;2.51;87.76;100912.75;5048476;28;20470;-75
2021/01/02 04:01:16;;;;;;;27.73;15.00;;;;;;;2.51;88.12;100926.22;5045785;28;20040;-75
2021/01/02 04:03:42;;;;;;;27.85;15.25;;;;;;;2.53;88.08;100918.72;5049297;28;20024;-76
2021/01/02 04:06:07;;;;;;;29.00;15.70;;;;;;;2.53;88.18;100918.72;5051252;28;20055;-76
2021/01/02 04:08:33;;;;;;;26.95;15.32;;;;;;;2.52;87.85;100916.28;5049413;28;20029;-75
2021/01/02 04:10:58;;;;;;;29.02;16.48;;;;;;;2.50;87.37;100924.56;5032815;28;20386;-76
2021/01/02 04:13:24;;;;;;;31.25;17.08;;;;;;;2.47;87.93;100921.47;5049813;28;20025;-76
2021/01/02 04:15:49;;;;;;;32.60;17.92;;;;;;;2.42;87.90;100914.88;5051329;28;20386;-75
2021/01/02 04:18:14;;;;;;;33.30;18.42;;;;;;;2.41;87.66;100923.16;5047020;28;20102;-75
2021/01/02 04:20:40;;;;;;;38.33;18.42;;;;;;;2.38;87.73;100923.59;5043438;28;20033;-76
2021/01/02 04:23:07;;;;;;;29.85;16.60;;;;;;;2.34;87.79;100925.88;5061013;28;20018;-76
2021/01/02 04:25:32;;;;;;;30.13;15.65;;;;;;;2.32;87.74;100917.22;5050086;28;20032;-76
2021/01/02 04:27:57;;;;;;;24.92;14.23;;;;;;;2.33;87.28;100926.13;5051406;28;20029;-76
2021/01/02 04:30:23;;;;;;;25.83;15.45;;;;;;;2.31;87.64;100922.81;5038203;28;20383;-76
2021/01/02 04:32:49;;;;;;;31.67;16.40;;;;;;;2.29;87.50;100919.50;5043327;28;20032;-77
2021/01/02 04:35:15;;;;;;;29.73;15.05;;;;;;;2.31;88.12;100925.50;5042170;28;20045;-75
2021/01/02 04:37:41;;;;;;;28.95;14.95;;;;;;;2.30;88.41;100926.56;5048018;28;20043;-76
2021/01/02 04:40:11;;;;;;;25.10;14.25;;;;;;;2.33;88.01;100928.81;5049083;28;20031;-76
2021/01/02 04:42:39;;;;;;;27.02;14.77;;;;;;;2.34;87.87;100927.75;5024705;28;20040;-77
2021/01/02 04:45:08;;;;;;;24.60;13.38;;;;;;;2.36;87.61;100923.00;5048898;28;20062;-76
2021/01/02 04:47:34;;;;;;;24.75;13.60;;;;;;;2.36;87.80;100928.38;5082880;28;20028;-76
2021/01/02 04:49:59;;;;;;;29.88;14.98;;;;;;;2.38;88.00;100929.00;5049949;28;20055;-76
2021/01/02 04:52:25;;;;;;;28.80;15.25;;;;;;;2.38;87.95;100934.38;5050126;28;20028;-76
2021/01/02 04:54:50;;;;;;;25.90;14.40;;;;;;;2.39;87.52;100941.38;5032563;28;20043;-76
2021/01/02 04:57:18;;;;;;;26.67;13.05;;;;;;;2.40;87.49;100938.50;5050725;28;20036;-76
2021/01/02 04:59:50;;;;;;;23.42;13.55;;;;;;;2.39;87.59;100942.22;5032672;28;20486;-75
2021/01/02 05:02:17;;;;;;;29.90;14.32;;;;;;;2.39;87.95;100941.38;5043156;28;20032;-76
2021/01/02 05:04:45;;;;;;;26.30;14.70;;;;;;;2.39;87.83;100936.00;5079310;28;20104;-76
2021/01/02 05:07:10;;;;;;;25.25;13.77;;;;;;;2.41;88.31;100947.38;5049404;28;20078;-76
2021/01/02 05:09:36;;;;;;;25.25;13.55;;;;;;;2.41;88.14;100939.31;5049325;28;20024;-76
2021/01/02 05:12:01;;;;;;;22.85;13.27;;;;;;;2.44;87.68;100946.94;5032253;28;20462;-76
2021/01/02 05:14:27;;;;;;;24.80;12.70;;;;;;;2.43;87.93;100946.13;5051150;28;20031;-75
2021/01/02 05:16:52;;;;;;;23.52;13.85;;;;;;;2.45;87.65;100953.97;5052357;28;20098;-76
2021/01/02 05:19:17;;;;;;;27.13;13.60;;;;;;;2.47;87.91;100953.78;5054529;28;20036;-76
2021/01/02 05:21:43;;;;;;;25.48;13.70;;;;;;;2.47;87.69;100951.06;5053587;28;20032;-76
2021/01/02 05:24:16;;;;;;;24.35;13.73;;;;;;;2.49;87.71;100957.06;5052813;28;20521;-76
2021/01/02 05:26:42;;;;;;;30.63;14.95;;;;;;;2.50;87.47;100962.22;5046688;28;20064;-76
2021/01/02 05:29:15;;;;;;;22.48;12.40;;;;;;;2.50;87.76;100964.09;5050715;28;20039;-76
2021/01/02 05:31:42;;;;;;;28.38;14.52;;;;;;;2.51;87.61;100965.72;5045817;28;20048;-76
2021/01/02 05:34:09;;;;;;;28.38;14.40;;;;;;;2.51;87.44;100960.34;5053515;28;20108;-76
2021/01/02 05:36:34;;;;;;;23.17;12.50;;;;;;;2.52;87.46;100967.41;5054718;28;20044;-76
2021/01/02 05:39:00;;;;;;;20.38;12.23;;;;;;;2.51;88.18;100977.34;5053701;28;20085;-76
2021/01/02 05:41:27;;;;;;;23.25;12.15;;;;;;;2.49;88.38;100974.03;5045207;28;20021;-76
2021/01/02 05:43:53;;;;;;;22.45;11.82;;;;;;;2.50;87.50;100975.69;5052807;28;20033;-76
2021/01/02 05:46:21;;;;;;;21.83;12.10;;;;;;;2.51;88.13;100979.19;5053319;28;20532;-76
2021/01/02 05:48:47;;;;;;;22.60;12.98;;;;;;;2.50;88.07;100975.69;5046916;28;20455;-76
2021/01/02 05:51:12;;;;;;;21.05;12.52;;;;;;;2.52;88.12;100983.56;5052455;28;20013;-75
2021/01/02 05:53:38;;;;;;;24.23;13.30;;;;;;;2.51;87.57;100981.88;5053457;28;20037;-76
2021/01/02 05:56:10;;;;;;;21.35;13.23;;;;;;;2.50;87.63;100989.13;5053080;28;20083;-76
2021/01/02 05:58:42;;;;;;;23.15;12.35;;;;;;;2.47;87.88;100984.19;5052429;28;20474;-76
2021/01/02 06:01:18;;;;;;;22.40;12.55;;;;;;;2.46;87.86;100982.56;5053990;28;20493;-76
2021/01/02 06:03:53;;;;;;;25.98;12.73;;;;;;;2.44;87.91;100984.63;5052399;28;20025;-76
2021/01/02 06:06:19;;;;;;;21.90;12.25;;;;;;;2.42;87.41;100984.00;5052233;28;20044;-76
2021/01/02 06:08:46;;;;;;;21.75;12.48;;;;;;;2.41;87.57;100982.38;5066664;28;20029;-76
2021/01/02 06:11:14;;;;;;;23.05;12.23;;;;;;;2.39;87.53;100987.13;5052175;28;20043;-76
2021/01/02 06:13:41;;;;;;;20.95;12.00;;;;;;;2.37;87.48;100989.19;5082971;28;20123;-76
2021/01/02 06:16:06;;;;;;;22.45;12.50;;;;;;;2.36;87.86;100993.75;5051345;28;20024;-76
2021/01/02 06:18:33;;;;;;;22.38;12.00;;;;;;;2.36;87.49;101001.00;5048480;28;20048;-76
2021/01/02 06:21:03;;;;;;;17.50;10.85;;;;;;;2.36;87.70;100996.44;5052182;28;20025;-76
2021/01/02 06:23:29;;;;;;;19.35;11.75;;;;;;;2.36;88.09;100999.16;5051999;28;20036;-76
2021/01/02 06:25:55;;;;;;;21.88;11.70;;;;;;;2.34;87.46;101003.09;5086394;28;20021;-76
2021/01/02 06:28:21;;;;;;;19.27;10.50;;;;;;;2.27;87.98;101002.31;5051928;28;20039;-75
2021/01/02 06:30:46;;;;;;;16.60;9.82;;;;;;;2.20;87.61;101007.69;5051134;28;20127;-76
2021/01/02 06:33:15;;;;;;;21.55;11.65;;;;;;;2.11;88.18;101009.81;5048920;28;20029;-76
2021/01/02 06:35:41;;;;;;;23.80;12.50;;;;;;;2.02;88.08;101008.41;5052423;28;20091;-76
2021/01/02 06:38:07;;;;;;;23.95;11.68;;;;;;;1.95;87.48;101021.03;5053011;28;20020;-76
2021/01/02 06:40:40;;;;;;;21.27;11.00;;;;;;;1.90;88.41;101031.59;5035951;28;20033;-76
2021/01/02 06:43:11;;;;;;;19.90;11.10;;;;;;;1.87;87.83;101024.75;5052243;28;20040;-76
2021/01/02 06:45:39;;;;;;;21.17;12.52;;;;;;;1.86;87.76;101027.69;5050153;28;20029;-76
2021/01/02 06:48:25;;;;;;;23.17;12.32;;;;;;;1.85;87.87;101034.06;5052354;28;20029;-76
2021/01/02 06:50:53;;;;;;;21.80;12.30;;;;;;;1.86;87.41;101033.88;5045973;28;20101;-76
2021/01/02 06:53:25;;;;;;;23.08;12.55;;;;;;;1.87;87.33;101040.06;5051598;28;20029;-76
2021/01/02 06:56:04;;;;;;;24.20;12.57;;;;;;;1.88;87.79;101039.03;5053489;28;20032;-77
2021/01/02 06:58:42;;;;;;;22.25;12.30;;;;;;;1.91;87.86;101057.41;5044630;28;20375;-75
2021/01/02 07:01:27;;;;;;;22.08;12.10;;;;;;;1.93;87.50;101055.34;5053189;28;20037;-76
2021/01/02 07:03:53;;;;;;;20.98;12.38;;;;;;;1.95;87.63;101058.66;5050227;28;20037;-76
2021/01/02 07:08:58;;;;;;;21.25;12.20;;;;;;;2.06;88.41;101070.63;5050109;28;20028;-77
2021/01/02 07:11:30;;;;;;;22.85;13.18;;;;;;;2.09;87.63;101065.66;5051650;28;20086;-76
2021/01/02 07:14:18;;;;;;;;;;;;;;;2.12;87.66;101078.69;5044019;28;20390;-76
2021/01/02 07:16:51;;;;;;;20.60;11.40;;;;;;;2.16;87.77;101077.25;5051030;28;20289;-76
2021/01/02 07:19:31;;;;;;;;;;;;;;;2.17;87.47;101078.88;5044364;28;20104;-76
2021/01/02 07:22:03;;;;;;;22.33;11.77;;;;;;;2.18;87.58;101080.56;5049509;28;19932;-76
2021/01/02 07:24:37;;;;;;;;;;;;;;;2.20;87.83;101088.38;5045505;28;20515;-76
2021/01/02 07:27:05;;;;;;;25.35;11.93;;;;;;;2.21;87.30;101090.06;5047270;28;20004;-76
2021/01/02 07:29:33;;;;;;;23.05;12.50;;;;;;;2.21;87.90;101090.88;5050360;28;20051;-76
2021/01/02 07:32:05;;;;;;;25.45;12.70;;;;;;;2.22;87.89;101087.16;5044776;28;20026;-76
2021/01/02 07:34:31;;;;;;;22.33;13.30;;;;;;;2.24;87.44;101092.34;5048337;28;20025;-76
2021/01/02 07:36:57;;;;;;;23.33;13.30;;;;;;;2.26;87.67;101092.09;5050131;28;20375;-76
2021/01/02 07:39:22;;;;;;;19.67;12.15;;;;;;;2.27;87.56;101099.16;5047758;28;20052;-76
2021/01/02 07:41:48;;;;;;;23.63;13.18;;;;;;;2.29;88.09;101107.81;5080803;28;20025;-77
2021/01/02 07:44:13;;;;;;;21.42;11.98;;;;;;;2.30;87.68;101107.63;5064243;28;20474;-77
2021/01/02 07:46:44;;;;;;;20.05;12.00;;;;;;;2.30;87.57;101110.31;5050465;28;20040;-76
2021/01/02 07:49:09;;;;;;;21.63;12.75;;;;;;;2.31;87.55;101116.50;5049917;28;20032;-76
2021/01/02 07:51:34;;;;;;;23.45;12.52;;;;;;;2.33;88.16;101115.25;5050266;28;20526;-76
2021/01/02 07:54:00;;;;;;;24.25;13.60;;;;;;;2.34;87.25;101113.41;5082337;28;20390;-76
2021/01/02 07:56:33;;;;;;;23.80;12.90;;;;;;;2.35;88.01;101113.19;5062408;28;20036;-76
2021/01/02 07:58:58;;;;;;;23.10;13.15;;;;;;;2.36;88.01;101114.84;5050073;28;20020;-77
2021/01/02 08:01:23;;;;;;;23.55;13.93;;;;;;;2.37;88.07;101119.19;5048597;28;20088;-76
2021/01/02 08:03:49;;;;;;;24.92;13.55;;;;;;;2.38;87.86;101120.03;5065146;28;20024;-77
2021/01/02 08:06:17;;;;;;;28.95;13.57;;;;;;;2.39;87.64;101124.34;5049583;28;20028;-77
2021/01/02 08:08:57;;;;;;;24.20;14.40;;;;;;;2.39;87.65;101121.66;5028021;28;20129;-77
2021/01/02 08:11:22;;;;;;;23.98;13.10;;;;;;;2.43;87.75;101128.28;5045953;28;20028;-76
2021/01/02 08:13:48;;;;;;;26.10;13.75;;;;;;;2.43;88.05;101139.06;5045819;28;20029;-77
2021/01/02 08:16:13;;;;;;;25.10;13.20;;;;;;;2.44;87.79;101140.69;5049969;28;20032;-77
2021/01/02 08:18:38;;;;;;;25.92;14.18;;;;;;;2.46;87.52;101141.31;5030712;28;20041;-76
2021/01/02 08:21:04;;;;;;;24.20;13.82;;;;;;;2.48;87.58;101144.59;5048463;28;20029;-77
2021/01/02 08:23:29;;;;;;;30.50;14.65;;;;;;;2.50;87.64;101150.59;5064245;28;20071;-77
2021/01/02 08:25:55;;;;;;;23.63;12.73;;;;;;;2.50;87.80;101156.00;5048798;28;21466;-76
2021/01/02 08:28:20;;;;;;;27.23;14.48;;;;;;;2.52;87.45;101150.41;5045710;28;20036;-76
2021/01/02 08:30:45;;;;;;;21.88;13.43;;;;;;;2.54;87.94;101159.94;5047050;28;20032;-77
2021/01/02 08:33:11;;;;;;;25.40;12.18;;;;;;;2.55;87.41;101158.88;5064599;28;20470;-76
2021/01/02 08:35:39;;;;;;;23.17;12.30;;;;;;;2.58;87.60;101161.13;5081437;28;20036;-77
2021/01/02 08:38:08;;;;;;;22.20;12.95;;;;;;;2.58;87.86;101163.84;5047718;28;20128;-77
2021/01/02 08:40:38;;;;;;;23.88;13.82;;;;;;;2.60;87.96;101160.94;5046372;28;20039;-76
2021/01/02 08:43:04;;;;;;;21.98;13.25;;;;;;;2.61;87.99;101176.03;5047346;28;20030;-77
2021/01/02 08:45:30;;;;;;;22.35;12.77;;;;;;;2.63;87.57;101182.06;5047911;28;20024;-77
2021/01/02 08:48:12;;;;;;;22.75;12.75;;;;;;;2.64;87.77;101176.44;5043893;28;20024;-76
2021/01/02 08:50:41;;;;;;;22.35;12.38;;;;;;;2.66;87.73;101185.13;5044055;28;20535;-77
2021/01/02 08:53:06;;;;;;;25.50;13.65;;;;;;;2.66;87.54;101187.84;5050062;28;20169;-76
2021/01/02 08:55:32;;;;;;;25.65;13.25;;;;;;;2.69;87.26;101199.22;5050872;28;20040;-76
2021/01/02 08:57:57;;;;;;;24.42;13.20;;;;;;;2.70;87.55;101200.88;5054943;28;20470;-76
2021/01/02 09:00:32;;;;;;;23.45;13.30;;;;;;;2.70;87.70;101201.72;5087669;28;20032;-77
2021/01/02 09:03:05;;;;;;;21.30;12.70;;;;;;;2.71;87.75;101208.75;5088122;28;20086;-76
2021/01/02 09:05:37;;;;;;;23.77;12.43;;;;;;;2.72;87.71;101209.56;5049771;28;20025;-75
2021/01/02 09:08:11;;;;;;;20.95;12.88;;;;;;;2.73;87.94;101211.19;5045701;28;20029;-76
2021/01/02 09:10:42;;;;;;;22.98;13.65;;;;;;;2.73;87.07;101221.97;5084311;28;20029;-75
2021/01/02 09:13:08;;;;;;;23.02;13.38;;;;;;;2.73;87.76;101222.81;5049045;28;20067;-75
2021/01/02 09:15:46;;;;;;;25.30;14.45;;;;;;;2.74;87.67;101224.47;5045824;28;20381;-75
2021/01/02 09:18:13;;;;;;;23.20;12.60;;;;;;;2.76;87.98;101232.34;5085027;28;20048;-75
2021/01/02 09:20:38;;;;;;;21.90;12.77;;;;;;;2.79;87.78;101231.91;5045646;28;20052;-75
2021/01/02 09:23:04;;;;;;;22.40;12.35;;;;;;;2.80;87.86;101231.69;5052411;28;20033;-75
2021/01/02 09:25:32;;;;;;;22.55;12.95;;;;;;;2.83;87.87;101242.03;5054881;28;20029;-74
2021/01/02 09:28:11;;;;;;;21.88;12.35;;;;;;;2.85;87.65;101241.84;5050959;28;20456;-74
2021/01/02 09:30:37;;;;;;;22.10;12.00;;;;;;;2.87;87.45;101247.84;5050807;28;20021;-74
2021/01/02 09:33:02;;;;;;;21.23;12.50;;;;;;;2.89;87.60;101246.59;5057627;28;20040;-74
2021/01/02 09:35:28;;;;;;;22.50;12.25;;;;;;;2.92;87.55;101236.41;5052025;28;20067;-74
2021/01/02 09:37:53;;;;;;;22.25;12.73;;;;;;;2.94;87.83;101248.63;5050202;28;20381;-74
2021/01/02 09:40:20;;;;;;;20.33;12.07;;;;;;;2.98;87.86;101263.34;5051710;28;20757;-74
2021/01/02 09:42:45;;;;;;;19.92;11.18;;;;;;;2.99;87.57;101264.16;5050475;28;20167;-74
2021/01/02 09:45:11;;;;;;;20.13;10.68;;;;;;;2.97;87.51;101267.06;5048903;28;20514;-73
2021/01/02 09:47:37;;;;;;;15.80;10.10;;;;;;;2.97;87.28;101267.06;5049930;28;20043;-74
2021/01/02 09:50:03;;;;;;;18.40;11.07;;;;;;;2.98;87.34;101271.44;5055478;28;20029;-74
2021/01/02 09:52:28;;;;;;;17.90;10.63;;;;;;;3.03;87.59;101270.81;5048684;28;20486;-75
2021/01/02 09:54:54;;;;;;;20.35;11.32;;;;;;;3.04;87.32;101265.19;5055563;28;20036;-75
2021/01/02 09:57:19;;;;;;;25.85;15.07;;;;;;;3.06;87.19;101268.50;5045446;28;20074;-74
2021/01/02 09:59:45;;;;;;;24.27;13.68;;;;;;;3.07;87.48;101283.63;5043690;28;20576;-75
2021/01/02 10:02:10;;;;;;;21.70;10.73;;;;;;;3.10;87.26;101279.69;5081087;28;20032;-74
2021/01/02 10:04:45;;;;;;;17.67;10.60;;;;;;;3.13;87.79;101283.81;5061515;28;20035;-75
2021/01/02 10:07:11;;;;;;;19.48;10.82;;;;;;;3.15;87.71;101279.06;5047989;28;20040;-75
2021/01/02 10:09:40;;;;;;;16.48;9.95;;;;;;;3.17;87.39;101271.59;5052707;28;20095;-75
2021/01/02 10:12:07;;;;;;;18.60;11.25;;;;;;;3.22;87.79;101280.69;5045741;28;20055;-75
2021/01/02 10:14:32;;;;;;;18.77;12.02;;;;;;;3.27;87.59;101280.03;5048860;28;20028;-77
2021/01/02 10:16:58;;;;;;;20.08;11.55;;;;;;;3.30;87.11;101282.28;5053777;28;21237;-77
2021/01/02 10:19:23;;;;;;;19.83;11.98;;;;;;;3.32;87.29;101282.91;5050613;28;20041;-77
2021/01/02 10:21:49;;;;;;;19.52;11.43;;;;;;;3.32;86.78;101286.44;5044561;28;20063;-77
2021/01/02 10:24:14;;;;;;;17.40;10.73;;;;;;;3.31;87.38;101281.28;5042272;28;20047;-77
2021/01/02 10:26:39;;;;;;;19.33;11.05;;;;;;;3.30;87.27;101287.69;5050722;28;20063;-77
2021/01/02 10:29:05;;;;;;;16.88;10.50;;;;;;;3.30;87.04;101284.97;5031324;28;20071;-74
2021/01/02 10:31:30;;;;;;;18.40;10.43;;;;;;;3.27;86.94;101288.09;5045204;28;20028;-77
2021/01/02 10:33:55;;;;;;;15.88;10.55;;;;;;;3.25;86.92;101292.91;5047358;28;20079;-77
2021/01/02 10:36:21;;;;;;;18.25;10.77;;;;;;;3.24;87.07;101294.75;5043668;28;20417;-77
2021/01/02 10:38:46;;;;;;;15.60;9.52;;;;;;;3.23;86.93;101297.69;5049163;28;20039;-78
2021/01/02 10:41:13;;;;;;;16.88;9.70;;;;;;;3.23;87.39;101289.59;5046221;28;20078;-78
2021/01/02 10:43:38;;;;;;;15.30;9.40;;;;;;;3.21;87.06;101291.66;5048134;28;20033;-78
2021/01/02 10:46:06;;;;;;;17.52;10.13;;;;;;;3.20;87.47;101295.41;5048881;28;20029;-78
2021/01/02 10:48:31;;;;;;;14.35;8.68;;;;;;;3.20;87.47;101300.78;5047901;28;20371;-77
2021/01/02 10:50:57;;;;;;;16.85;9.25;;;;;;;3.20;87.17;101306.19;5046059;28;20025;-76
2021/01/02 10:53:22;;;;;;;17.52;10.35;;;;;;;3.21;87.31;101299.75;5045561;28;20025;-77
2021/01/02 10:55:48;;;;;;;18.73;10.27;;;;;;;3.19;87.11;101299.97;5049703;28;20563;-75
2021/01/02 10:58:14;;;;;;;19.77;11.20;;;;;;;3.20;86.98;101290.03;5044129;28;20032;-77
2021/01/02 11:00:40;;;;;;;23.70;10.80;;;;;;;3.18;86.88;101306.38;5044354;28;20033;-77
2021/01/02 11:03:05;;;;;;;18.23;10.48;;;;;;;3.19;87.08;101312.59;5050511;28;20108;-77
2021/01/02 11:05:31;;;;;;;19.00;10.65;;;;;;;3.21;86.84;101299.75;5050215;28;20040;-77
2021/01/02 11:07:56;;;;;;;18.48;10.75;;;;;;;3.21;87.14;101302.44;5047242;28;20024;-78
2021/01/02 11:10:22;;;;;;;18.45;10.88;;;;;;;3.22;87.20;101306.78;5046853;28;20021;-76
2021/01/02 11:12:48;;;;;;;16.73;9.98;;;;;;;3.22;86.88;101312.16;5051197;28;20033;-77
2021/01/02 11:15:13;;;;;;;18.77;10.73;;;;;;;3.24;86.84;101312.78;5049402;28;20021;-77
2021/01/02 11:17:39;;;;;;;16.83;9.40;;;;;;;3.25;86.77;101311.78;5047509;28;20033;-77
2021/01/02 11:20:10;;;;;;;17.92;10.23;;;;;;;3.27;87.17;101309.66;5046896;28;20375;-78
2021/01/02 11:22:35;;;;;;;15.73;9.25;;;;;;;3.28;86.79;101298.69;5045283;28;20394;-77
2021/01/02 11:25:01;;;;;;;14.82;8.70;;;;;;;3.26;86.81;101306.16;5083944;28;20032;-76
2021/01/02 11:27:26;;;;;;;15.15;9.18;;;;;;;3.27;86.98;101306.97;5051954;28;20199;-77
2021/01/02 11:29:52;;;;;;;15.02;9.13;;;;;;;3.28;87.07;101309.47;5046014;28;20102;-76